Decoded Metar for KS32 ( in ) (IATA:) | Meteo·Mobile Aviation Weather
aviador You're here:

KS32 Decoded Metar

in
Report Time2018-10-19 09:35:00
UTC Time2018-10-19 10:01:28
Flight Rules vfr VFR
Wind300° at 09 kt
W.Rank300° ranks 1
Current wind is below 300° avg. (12.3)
Visibility9999 m
Phenomena:N/A
Clouds:N/A
Expected CloudBase > 800 ft AGL from Temp-Dew spread
CeilingNone
Temp06°C
Dew Point04°C (87% RH)
AAT1.4°C
QNH1008 hPa
Raw Report
KS32 190935Z AUTO 30009KT 10SM CLR 06/04 A2976 RMK AO2=

Extra information for KS32:More info

Social comments